sensor_id;sensor_type;location;lat;lon;timestamp;pressure;altitude;pressure_sealevel;temperature;humidity
50672;BME280;46021;55.882;37.654;2023-04-25T00:00:02;99298.34;;;11.88;36.86
50672;BME280;46021;55.882;37.654;2023-04-25T00:02:40;99292.69;;;11.79;37.07
50672;BME280;46021;55.882;37.654;2023-04-25T00:05:08;99291.91;;;11.77;37.16
50672;BME280;46021;55.882;37.654;2023-04-25T00:07:36;99295.56;;;11.73;37.51
50672;BME280;46021;55.882;37.654;2023-04-25T00:10:04;99292.94;;;11.73;37.28
50672;BME280;46021;55.882;37.654;2023-04-25T00:12:31;99299.84;;;11.74;37.30
50672;BME280;46021;55.882;37.654;2023-04-25T00:14:59;99302.56;;;11.72;38.02
50672;BME280;46021;55.882;37.654;2023-04-25T00:17:26;99293.91;;;11.70;37.85
50672;BME280;46021;55.882;37.654;2023-04-25T00:19:55;99302.63;;;11.70;38.20
50672;BME280;46021;55.882;37.654;2023-04-25T00:22:24;99300.13;;;11.67;38.53
50672;BME280;46021;55.882;37.654;2023-04-25T00:24:51;99297.63;;;11.64;38.58
50672;BME280;46021;55.882;37.654;2023-04-25T00:27:18;99294.13;;;11.65;39.79
50672;BME280;46021;55.882;37.654;2023-04-25T00:29:45;99304.56;;;11.65;38.51
50672;BME280;46021;55.882;37.654;2023-04-25T00:32:12;99302.16;;;11.61;38.99
50672;BME280;46021;55.882;37.654;2023-04-25T00:34:40;99308.34;;;11.58;39.19
50672;BME280;46021;55.882;37.654;2023-04-25T00:37:08;99305.88;;;11.55;39.43
50672;BME280;46021;55.882;37.654;2023-04-25T00:39:36;99307.72;;;11.53;39.72
50672;BME280;46021;55.882;37.654;2023-04-25T00:42:03;99311.34;;;11.49;40.18
50672;BME280;46021;55.882;37.654;2023-04-25T00:44:31;99310.59;;;11.45;40.36
50672;BME280;46021;55.882;37.654;2023-04-25T00:47:00;99312.38;;;11.45;40.22
50672;BME280;46021;55.882;37.654;2023-04-25T00:49:28;99308.94;;;11.44;40.05
50672;BME280;46021;55.882;37.654;2023-04-25T00:51:56;99303.88;;;11.40;40.00
50672;BME280;46021;55.882;37.654;2023-04-25T00:54:25;99308.41;;;11.36;40.47
50672;BME280;46021;55.882;37.654;2023-04-25T00:56:52;99308.47;;;11.35;40.36
50672;BME280;46021;55.882;37.654;2023-04-25T00:59:20;99309.34;;;11.34;40.56
50672;BME280;46021;55.882;37.654;2023-04-25T01:01:47;99310.34;;;11.31;40.67
50672;BME280;46021;55.882;37.654;2023-04-25T01:04:15;99317.38;;;11.29;40.77
50672;BME280;46021;55.882;37.654;2023-04-25T01:06:42;99310.50;;;11.26;41.50
50672;BME280;46021;55.882;37.654;2023-04-25T01:09:09;99304.59;;;11.23;41.10
50672;BME280;46021;55.882;37.654;2023-04-25T01:11:38;99300.47;;;11.17;41.28
50672;BME280;46021;55.882;37.654;2023-04-25T01:14:06;99309.41;;;11.11;42.06
50672;BME280;46021;55.882;37.654;2023-04-25T01:16:33;99306.06;;;11.08;42.16
50672;BME280;46021;55.882;37.654;2023-04-25T01:19:01;99306.28;;;11.02;42.38
50672;BME280;46021;55.882;37.654;2023-04-25T01:21:29;99308.09;;;11.00;42.25
50672;BME280;46021;55.882;37.654;2023-04-25T01:23:57;99303.97;;;10.94;42.47
50672;BME280;46021;55.882;37.654;2023-04-25T01:26:26;99297.97;;;10.92;42.53
50672;BME280;46021;55.882;37.654;2023-04-25T01:28:53;99306.88;;;10.86;42.60
50672;BME280;46021;55.882;37.654;2023-04-25T01:31:21;99300.09;;;10.82;42.60
50672;BME280;46021;55.882;37.654;2023-04-25T01:33:48;99297.53;;;10.81;42.59
50672;BME280;46021;55.882;37.654;2023-04-25T01:36:15;99296.81;;;10.77;43.45
50672;BME280;46021;55.882;37.654;2023-04-25T01:38:44;99295.09;;;10.78;43.69
50672;BME280;46021;55.882;37.654;2023-04-25T01:41:13;99297.69;;;10.78;43.35
50672;BME280;46021;55.882;37.654;2023-04-25T01:43:40;99294.22;;;10.77;43.82
50672;BME280;46021;55.882;37.654;2023-04-25T01:46:08;99291.69;;;10.76;43.87
50672;BME280;46021;55.882;37.654;2023-04-25T01:48:35;99290.75;;;10.77;43.55
50672;BME280;46021;55.882;37.654;2023-04-25T01:51:02;99293.22;;;10.81;43.61
50672;BME280;46021;55.882;37.654;2023-04-25T01:53:30;99291.25;;;10.86;43.55
50672;BME280;46021;55.882;37.654;2023-04-25T01:55:59;99278.16;;;10.88;43.77
50672;BME280;46021;55.882;37.654;2023-04-25T01:58:31;99284.00;;;10.95;43.60
50672;BME280;46021;55.882;37.654;2023-04-25T02:01:21;99270.81;;;10.98;43.46
50672;BME280;46021;55.882;37.654;2023-04-25T02:04:05;99275.84;;;11.02;43.36
50672;BME280;46021;55.882;37.654;2023-04-25T02:06:38;99271.44;;;11.04;43.51
50672;BME280;46021;55.882;37.654;2023-04-25T02:09:06;99274.75;;;11.08;43.34
50672;BME280;46021;55.882;37.654;2023-04-25T02:11:40;99273.84;;;11.09;43.97
50672;BME280;46021;55.882;37.654;2023-04-25T02:14:24;99278.16;;;11.10;43.83
50672;BME280;46021;55.882;37.654;2023-04-25T02:16:59;99267.00;;;11.06;44.21
50672;BME280;46021;55.882;37.654;2023-04-25T02:19:26;99275.53;;;11.10;44.38
50672;BME280;46021;55.882;37.654;2023-04-25T02:21:53;99274.63;;;11.11;44.34
50672;BME280;46021;55.882;37.654;2023-04-25T02:24:20;99274.50;;;11.14;44.38
50672;BME280;46021;55.882;37.654;2023-04-25T02:26:49;99277.06;;;11.16;44.36
50672;BME280;46021;55.882;37.654;2023-04-25T02:29:17;99271.69;;;11.19;44.64
50672;BME280;46021;55.882;37.654;2023-04-25T02:31:44;99269.75;;;11.24;44.23
50672;BME280;46021;55.882;37.654;2023-04-25T02:34:11;99264.22;;;11.31;44.34
50672;BME280;46021;55.882;37.654;2023-04-25T02:36:38;99266.38;;;11.42;44.35
50672;BME280;46021;55.882;37.654;2023-04-25T02:39:05;99268.56;;;11.53;44.36
50672;BME280;46021;55.882;37.654;2023-04-25T02:41:32;99262.84;;;11.64;44.40
50672;BME280;46021;55.882;37.654;2023-04-25T02:44:01;99259.78;;;11.75;44.63
50672;BME280;46021;55.882;37.654;2023-04-25T02:46:28;99258.31;;;11.89;44.36
50672;BME280;46021;55.882;37.654;2023-04-25T02:48:55;99265.53;;;12.03;44.10
50672;BME280;46021;55.882;37.654;2023-04-25T02:51:22;99257.75;;;12.21;44.23
50672;BME280;46021;55.882;37.654;2023-04-25T02:53:49;99264.84;;;12.38;44.17
50672;BME280;46021;55.882;37.654;2023-04-25T02:56:16;99275.50;;;12.52;44.26
50672;BME280;46021;55.882;37.654;2023-04-25T02:58:44;99273.44;;;12.59;44.42
50672;BME280;46021;55.882;37.654;2023-04-25T03:01:12;99274.66;;;12.71;44.26
50672;BME280;46021;55.882;37.654;2023-04-25T03:03:39;99278.94;;;12.91;44.20
50672;BME280;46021;55.882;37.654;2023-04-25T03:06:07;99279.22;;;13.21;44.06
50672;BME280;46021;55.882;37.654;2023-04-25T03:08:34;99277.03;;;13.48;43.42
50672;BME280;46021;55.882;37.654;2023-04-25T03:11:01;99269.47;;;13.77;43.02
50672;BME280;46021;55.882;37.654;2023-04-25T03:13:29;99273.28;;;14.04;42.32
50672;BME280;46021;55.882;37.654;2023-04-25T03:15:56;99262.41;;;14.28;41.63
50672;BME280;46021;55.882;37.654;2023-04-25T03:18:25;99273.31;;;14.36;41.72
50672;BME280;46021;55.882;37.654;2023-04-25T03:20:54;99273.56;;;14.32;41.64
50672;BME280;46021;55.882;37.654;2023-04-25T03:23:21;99278.63;;;14.19;41.45
50672;BME280;46021;55.882;37.654;2023-04-25T03:25:48;99290.06;;;14.00;42.00
50672;BME280;46021;55.882;37.654;2023-04-25T03:28:15;99290.28;;;13.80;42.45
50672;BME280;46021;55.882;37.654;2023-04-25T03:30:42;99299.84;;;13.63;42.57
50672;BME280;46021;55.882;37.654;2023-04-25T03:33:10;99308.28;;;13.51;42.61
50672;BME280;46021;55.882;37.654;2023-04-25T03:35:38;99299.34;;;13.38;43.16
50672;BME280;46021;55.882;37.654;2023-04-25T03:38:06;99296.38;;;13.26;42.75
50672;BME280;46021;55.882;37.654;2023-04-25T03:40:38;99299.94;;;13.25;43.82
50672;BME280;46021;55.882;37.654;2023-04-25T03:43:11;99303.50;;;13.42;43.33
50672;BME280;46021;55.882;37.654;2023-04-25T03:45:41;99299.38;;;13.73;43.29
50672;BME280;46021;55.882;37.654;2023-04-25T03:48:09;99289.91;;;14.03;43.61
50672;BME280;46021;55.882;37.654;2023-04-25T03:50:36;99286.13;;;14.42;43.16
50672;BME280;46021;55.882;37.654;2023-04-25T03:53:05;99287.44;;;14.67;42.26
50672;BME280;46021;55.882;37.654;2023-04-25T03:55:52;99281.47;;;14.79;42.05
50672;BME280;46021;55.882;37.654;2023-04-25T03:58:20;99285.47;;;14.87;41.92
50672;BME280;46021;55.882;37.654;2023-04-25T04:00:48;99280.38;;;14.84;41.14
50672;BME280;46021;55.882;37.654;2023-04-25T04:03:15;99279.06;;;14.76;41.50
50672;BME280;46021;55.882;37.654;2023-04-25T04:05:43;99280.47;;;14.66;41.74
50672;BME280;46021;55.882;37.654;2023-04-25T04:08:12;99280.56;;;14.80;41.97
50672;BME280;46021;55.882;37.654;2023-04-25T04:10:39;99282.28;;;15.12;41.77
50672;BME280;46021;55.882;37.654;2023-04-25T04:13:07;99284.53;;;15.34;41.37
50672;BME280;46021;55.882;37.654;2023-04-25T04:15:34;99273.59;;;15.42;41.12
50672;BME280;46021;55.882;37.654;2023-04-25T04:18:01;99271.88;;;15.71;41.40
50672;BME280;46021;55.882;37.654;2023-04-25T04:20:29;99268.94;;;16.06;40.80
50672;BME280;46021;55.882;37.654;2023-04-25T04:22:57;99269.69;;;16.22;39.40
50672;BME280;46021;55.882;37.654;2023-04-25T04:25:26;99278.13;;;16.27;39.22
50672;BME280;46021;55.882;37.654;2023-04-25T04:28:19;99271.38;;;15.94;39.32
50672;BME280;46021;55.882;37.654;2023-04-25T04:31:12;99270.94;;;15.72;39.49
50672;BME280;46021;55.882;37.654;2023-04-25T04:33:42;99273.56;;;15.72;40.10
50672;BME280;46021;55.882;37.654;2023-04-25T04:36:10;99261.31;;;16.30;41.10
50672;BME280;46021;55.882;37.654;2023-04-25T04:38:37;99267.06;;;17.32;39.76
50672;BME280;46021;55.882;37.654;2023-04-25T04:41:06;99261.09;;;18.33;38.46
50672;BME280;46021;55.882;37.654;2023-04-25T04:44:01;99272.91;;;19.50;37.05
50672;BME280;46021;55.882;37.654;2023-04-25T04:46:42;99255.34;;;20.06;35.55
50672;BME280;46021;55.882;37.654;2023-04-25T04:49:13;99261.72;;;20.38;34.44
50672;BME280;46021;55.882;37.654;2023-04-25T04:52:03;99258.56;;;20.78;34.97
50672;BME280;46021;55.882;37.654;2023-04-25T04:54:57;99258.25;;;21.25;33.43
50672;BME280;46021;55.882;37.654;2023-04-25T04:57:45;99260.94;;;21.88;33.20
50672;BME280;46021;55.882;37.654;2023-04-25T05:00:48;99251.03;;;22.51;32.18
50672;BME280;46021;55.882;37.654;2023-04-25T05:03:47;99263.56;;;22.90;31.09
50672;BME280;46021;55.882;37.654;2023-04-25T05:06:43;99258.69;;;22.35;31.09
50672;BME280;46021;55.882;37.654;2023-04-25T05:09:33;99264.38;;;22.71;30.60
50672;BME280;46021;55.882;37.654;2023-04-25T05:12:21;99256.28;;;23.02;30.66
50672;BME280;46021;55.882;37.654;2023-04-25T05:14:50;99261.59;;;23.02;30.17
50672;BME280;46021;55.882;37.654;2023-04-25T05:17:35;99265.16;;;23.31;29.86
50672;BME280;46021;55.882;37.654;2023-04-25T05:20:31;99261.66;;;23.41;29.59
50672;BME280;46021;55.882;37.654;2023-04-25T05:23:17;99257.84;;;23.53;29.12
50672;BME280;46021;55.882;37.654;2023-04-25T05:25:54;99256.69;;;23.75;28.95
50672;BME280;46021;55.882;37.654;2023-04-25T05:28:41;99267.91;;;23.79;28.69
50672;BME280;46021;55.882;37.654;2023-04-25T05:31:24;99263.94;;;22.85;28.62
50672;BME280;46021;55.882;37.654;2023-04-25T05:34:06;99266.13;;;21.89;28.74
50672;BME280;46021;55.882;37.654;2023-04-25T05:36:42;99273.44;;;20.90;29.94
50672;BME280;46021;55.882;37.654;2023-04-25T05:39:09;99261.72;;;20.38;31.01
50672;BME280;46021;55.882;37.654;2023-04-25T05:41:55;99261.69;;;20.72;32.12
50672;BME280;46021;55.882;37.654;2023-04-25T05:44:52;99269.25;;;21.73;31.72
50672;BME280;46021;55.882;37.654;2023-04-25T05:47:47;99256.66;;;22.77;29.79
50672;BME280;46021;55.882;37.654;2023-04-25T05:50:37;99260.50;;;23.53;28.79
50672;BME280;46021;55.882;37.654;2023-04-25T05:53:23;99253.78;;;23.49;28.51
50672;BME280;46021;55.882;37.654;2023-04-25T05:55:56;99243.88;;;23.31;28.06
50672;BME280;46021;55.882;37.654;2023-04-25T05:58:27;99253.56;;;22.63;28.02
50672;BME280;46021;55.882;37.654;2023-04-25T06:00:55;99253.03;;;21.46;29.57
50672;BME280;46021;55.882;37.654;2023-04-25T06:03:24;99248.00;;;20.44;30.05
50672;BME280;46021;55.882;37.654;2023-04-25T06:05:52;99249.94;;;19.85;31.16
50672;BME280;46021;55.882;37.654;2023-04-25T06:08:19;99248.56;;;19.33;30.74
50672;BME280;46021;55.882;37.654;2023-04-25T06:10:47;99248.16;;;18.91;31.64
50672;BME280;46021;55.882;37.654;2023-04-25T06:13:14;99247.94;;;18.57;32.09
50672;BME280;46021;55.882;37.654;2023-04-25T06:15:41;99237.88;;;18.25;33.34
50672;BME280;46021;55.882;37.654;2023-04-25T06:18:08;99232.13;;;17.95;32.73
50672;BME280;46021;55.882;37.654;2023-04-25T06:20:37;99232.53;;;17.76;33.19
50672;BME280;46021;55.882;37.654;2023-04-25T06:23:04;99233.56;;;17.47;33.85
50672;BME280;46021;55.882;37.654;2023-04-25T06:25:46;99229.66;;;17.40;34.00
50672;BME280;46021;55.882;37.654;2023-04-25T06:28:13;99229.09;;;17.35;34.21
50672;BME280;46021;55.882;37.654;2023-04-25T06:30:41;99228.25;;;17.22;34.50
50672;BME280;46021;55.882;37.654;2023-04-25T06:33:12;99230.13;;;17.20;35.14
50672;BME280;46021;55.882;37.654;2023-04-25T06:35:42;99211.06;;;17.16;34.18
50672;BME280;46021;55.882;37.654;2023-04-25T06:38:12;99226.34;;;17.24;34.88
50672;BME280;46021;55.882;37.654;2023-04-25T06:40:43;99221.94;;;17.24;33.81
50672;BME280;46021;55.882;37.654;2023-04-25T06:43:10;99215.94;;;17.22;34.72
50672;BME280;46021;55.882;37.654;2023-04-25T06:46:03;99219.28;;;17.11;34.25
50672;BME280;46021;55.882;37.654;2023-04-25T06:48:33;99208.81;;;16.97;34.59
50672;BME280;46021;55.882;37.654;2023-04-25T06:51:02;99219.94;;;16.88;34.42
50672;BME280;46021;55.882;37.654;2023-04-25T06:53:29;99218.44;;;16.84;34.55
50672;BME280;46021;55.882;37.654;2023-04-25T06:56:00;99218.63;;;16.81;35.26
50672;BME280;46021;55.882;37.654;2023-04-25T06:58:37;99217.31;;;16.88;35.07
50672;BME280;46021;55.882;37.654;2023-04-25T07:01:40;99224.28;;;16.89;35.81
50672;BME280;46021;55.882;37.654;2023-04-25T07:04:26;99221.03;;;16.98;35.00
50672;BME280;46021;55.882;37.654;2023-04-25T07:06:57;99224.22;;;17.03;35.62
50672;BME280;46021;55.882;37.654;2023-04-25T07:09:46;99222.56;;;17.15;35.32
50672;BME280;46021;55.882;37.654;2023-04-25T07:12:14;99221.09;;;17.24;34.57
50672;BME280;46021;55.882;37.654;2023-04-25T07:14:42;99223.41;;;17.28;35.18
50672;BME280;46021;55.882;37.654;2023-04-25T07:17:10;99230.06;;;17.34;34.89
50672;BME280;46021;55.882;37.654;2023-04-25T07:19:37;99211.63;;;17.34;35.61
50672;BME280;46021;55.882;37.654;2023-04-25T07:22:07;99221.22;;;17.48;35.42
50672;BME280;46021;55.882;37.654;2023-04-25T07:24:37;99214.16;;;17.48;34.68
50672;BME280;46021;55.882;37.654;2023-04-25T07:27:05;99208.88;;;17.48;34.73
50672;BME280;46021;55.882;37.654;2023-04-25T07:29:44;99201.53;;;17.53;35.35
50672;BME280;46021;55.882;37.654;2023-04-25T07:32:12;99213.34;;;17.61;34.97
50672;BME280;46021;55.882;37.654;2023-04-25T07:34:42;99197.81;;;17.69;35.29
50672;BME280;46021;55.882;37.654;2023-04-25T07:37:10;99198.25;;;17.76;35.42
50672;BME280;46021;55.882;37.654;2023-04-25T07:39:50;99201.97;;;17.86;35.35
50672;BME280;46021;55.882;37.654;2023-04-25T07:42:17;99196.06;;;17.95;34.92
50672;BME280;46021;55.882;37.654;2023-04-25T07:44:45;99192.56;;;18.07;34.19
50672;BME280;46021;55.882;37.654;2023-04-25T07:47:14;99204.22;;;18.29;33.75
50672;BME280;46021;55.882;37.654;2023-04-25T07:49:42;99196.41;;;18.27;33.59
50672;BME280;46021;55.882;37.654;2023-04-25T07:52:11;99207.28;;;18.36;33.31
50672;BME280;46021;55.882;37.654;2023-04-25T07:54:43;99211.75;;;18.46;33.46
50672;BME280;46021;55.882;37.654;2023-04-25T07:57:16;99193.44;;;18.56;33.07
50672;BME280;46021;55.882;37.654;2023-04-25T07:59:45;99205.66;;;18.70;32.60
50672;BME280;46021;55.882;37.654;2023-04-25T08:02:13;99196.03;;;18.69;32.52
50672;BME280;46021;55.882;37.654;2023-04-25T08:04:40;99202.56;;;18.52;32.73
50672;BME280;46021;55.882;37.654;2023-04-25T08:07:08;99203.75;;;18.35;31.60
50672;BME280;46021;55.882;37.654;2023-04-25T08:09:49;99203.63;;;18.49;31.64
50672;BME280;46021;55.882;37.654;2023-04-25T08:12:24;99204.06;;;18.67;31.92
50672;BME280;46021;55.882;37.654;2023-04-25T08:14:52;99200.03;;;18.75;31.99
50672;BME280;46021;55.882;37.654;2023-04-25T08:17:19;99209.06;;;18.96;32.34
50672;BME280;46021;55.882;37.654;2023-04-25T08:19:47;99200.25;;;19.20;31.81
50672;BME280;46021;55.882;37.654;2023-04-25T08:22:22;99199.78;;;19.26;31.45
50672;BME280;46021;55.882;37.654;2023-04-25T08:24:58;99189.72;;;19.42;31.37
50672;BME280;46021;55.882;37.654;2023-04-25T08:27:26;99190.59;;;19.65;31.47
50672;BME280;46021;55.882;37.654;2023-04-25T08:29:53;99203.03;;;19.76;31.71
50672;BME280;46021;55.882;37.654;2023-04-25T08:32:20;99201.00;;;19.91;31.47
50672;BME280;46021;55.882;37.654;2023-04-25T08:35:14;99184.50;;;20.21;31.51
50672;BME280;46021;55.882;37.654;2023-04-25T08:37:43;99191.84;;;20.06;31.61
50672;BME280;46021;55.882;37.654;2023-04-25T08:40:15;99201.22;;;20.11;31.06
50672;BME280;46021;55.882;37.654;2023-04-25T08:42:53;99198.56;;;19.77;31.20
50672;BME280;46021;55.882;37.654;2023-04-25T08:45:21;99204.41;;;19.58;31.53
50672;BME280;46021;55.882;37.654;2023-04-25T08:47:51;99192.69;;;19.73;31.78
50672;BME280;46021;55.882;37.654;2023-04-25T08:50:22;99185.22;;;19.78;31.50
50672;BME280;46021;55.882;37.654;2023-04-25T08:52:53;99194.88;;;19.79;30.85
50672;BME280;46021;55.882;37.654;2023-04-25T08:55:23;99184.16;;;19.23;31.14
50672;BME280;46021;55.882;37.654;2023-04-25T08:57:54;99187.63;;;18.88;31.56
50672;BME280;46021;55.882;37.654;2023-04-25T09:00:22;99179.53;;;18.78;31.88
50672;BME280;46021;55.882;37.654;2023-04-25T09:02:49;99175.19;;;19.01;32.12
50672;BME280;46021;55.882;37.654;2023-04-25T09:05:17;99172.19;;;19.64;32.30
50672;BME280;46021;55.882;37.654;2023-04-25T09:07:45;99171.28;;;19.99;30.96
50672;BME280;46021;55.882;37.654;2023-04-25T09:10:12;99174.03;;;20.09;30.51
50672;BME280;46021;55.882;37.654;2023-04-25T09:12:41;99166.31;;;20.17;31.33
50672;BME280;46021;55.882;37.654;2023-04-25T09:15:10;99154.81;;;21.15;31.34
50672;BME280;46021;55.882;37.654;2023-04-25T09:17:55;99155.88;;;23.05;29.78
50672;BME280;46021;55.882;37.654;2023-04-25T09:20:23;99154.03;;;24.56;28.11
50672;BME280;46021;55.882;37.654;2023-04-25T09:23:01;99157.78;;;24.81;26.01
50672;BME280;46021;55.882;37.654;2023-04-25T09:25:34;99155.53;;;24.12;26.47
50672;BME280;46021;55.882;37.654;2023-04-25T09:28:06;99143.25;;;23.17;27.30
50672;BME280;46021;55.882;37.654;2023-04-25T09:30:35;99150.53;;;22.76;27.70
50672;BME280;46021;55.882;37.654;2023-04-25T09:33:28;99142.28;;;22.50;28.17
50672;BME280;46021;55.882;37.654;2023-04-25T09:36:02;99138.03;;;22.28;28.94
50672;BME280;46021;55.882;37.654;2023-04-25T09:38:59;99119.97;;;22.22;28.94
50672;BME280;46021;55.882;37.654;2023-04-25T09:41:29;99127.19;;;23.09;28.84
50672;BME280;46021;55.882;37.654;2023-04-25T09:44:01;99123.53;;;24.40;27.94
50672;BME280;46021;55.882;37.654;2023-04-25T09:46:33;99121.91;;;25.80;26.36
50672;BME280;46021;55.882;37.654;2023-04-25T09:49:06;99130.41;;;26.77;24.01
50672;BME280;46021;55.882;37.654;2023-04-25T09:51:53;99124.53;;;27.22;23.26
50672;BME280;46021;55.882;37.654;2023-04-25T09:54:22;99130.19;;;27.19;23.70
50672;BME280;46021;55.882;37.654;2023-04-25T09:56:54;99123.69;;;27.14;23.29
50672;BME280;46021;55.882;37.654;2023-04-25T09:59:22;99118.03;;;26.00;23.77
50672;BME280;46021;55.882;37.654;2023-04-25T10:01:50;99119.44;;;26.21;24.84
50672;BME280;46021;55.882;37.654;2023-04-25T10:04:28;99105.47;;;27.09;24.52
50672;BME280;46021;55.882;37.654;2023-04-25T10:07:05;99111.53;;;27.75;22.81
50672;BME280;46021;55.882;37.654;2023-04-25T10:09:33;99121.63;;;28.05;22.76
50672;BME280;46021;55.882;37.654;2023-04-25T10:12:03;99120.88;;;28.19;22.37
50672;BME280;46021;55.882;37.654;2023-04-25T10:14:33;99121.19;;;26.88;22.40
50672;BME280;46021;55.882;37.654;2023-04-25T10:17:01;99120.88;;;25.73;23.67
50672;BME280;46021;55.882;37.654;2023-04-25T10:19:28;99120.78;;;24.32;24.06
50672;BME280;46021;55.882;37.654;2023-04-25T10:22:03;99112.53;;;23.80;25.09
50672;BME280;46021;55.882;37.654;2023-04-25T10:24:31;99100.25;;;23.97;25.18
50672;BME280;46021;55.882;37.654;2023-04-25T10:26:59;99099.31;;;24.61;25.54
50672;BME280;46021;55.882;37.654;2023-04-25T10:29:27;99079.47;;;25.26;24.15
50672;BME280;46021;55.882;37.654;2023-04-25T10:31:56;99087.53;;;24.72;23.81
50672;BME280;46021;55.882;37.654;2023-04-25T10:34:25;99093.94;;;25.23;24.16
50672;BME280;46021;55.882;37.654;2023-04-25T10:37:04;99083.13;;;24.27;24.47
50672;BME280;46021;55.882;37.654;2023-04-25T10:39:32;99095.84;;;25.13;24.44
50672;BME280;46021;55.882;37.654;2023-04-25T10:42:03;99089.84;;;25.11;24.24
50672;BME280;46021;55.882;37.654;2023-04-25T10:44:31;99080.22;;;24.74;23.77
50672;BME280;46021;55.882;37.654;2023-04-25T10:47:01;99078.69;;;24.00;24.36
50672;BME280;46021;55.882;37.654;2023-04-25T10:49:30;99069.38;;;23.11;25.06
50672;BME280;46021;55.882;37.654;2023-04-25T10:52:15;99071.66;;;22.37;26.22
50672;BME280;46021;55.882;37.654;2023-04-25T10:54:46;99073.50;;;22.76;26.70
50672;BME280;46021;55.882;37.654;2023-04-25T10:57:36;99069.25;;;23.78;26.00
50672;BME280;46021;55.882;37.654;2023-04-25T11:00:10;99049.06;;;24.93;24.74
50672;BME280;46021;55.882;37.654;2023-04-25T11:02:41;99063.28;;;26.04;23.92
50672;BME280;46021;55.882;37.654;2023-04-25T11:05:09;99055.22;;;26.63;23.29
50672;BME280;46021;55.882;37.654;2023-04-25T11:07:44;99049.66;;;26.65;22.44
50672;BME280;46021;55.882;37.654;2023-04-25T11:10:16;99051.50;;;25.81;23.33
50672;BME280;46021;55.882;37.654;2023-04-25T11:12:44;99044.66;;;25.78;23.51
50672;BME280;46021;55.882;37.654;2023-04-25T11:15:11;99033.25;;;26.11;23.69
50672;BME280;46021;55.882;37.654;2023-04-25T11:17:40;99039.16;;;26.72;23.21
50672;BME280;46021;55.882;37.654;2023-04-25T11:20:09;99027.69;;;27.11;22.38
50672;BME280;46021;55.882;37.654;2023-04-25T11:22:40;99037.63;;;26.69;21.96
50672;BME280;46021;55.882;37.654;2023-04-25T11:25:09;99031.94;;;26.89;21.98
50672;BME280;46021;55.882;37.654;2023-04-25T11:27:49;99037.13;;;27.54;21.21
50672;BME280;46021;55.882;37.654;2023-04-25T11:30:17;99034.75;;;27.59;21.51
50672;BME280;46021;55.882;37.654;2023-04-25T11:32:47;99023.06;;;27.52;21.16
50672;BME280;46021;55.882;37.654;2023-04-25T11:35:14;99022.91;;;26.90;21.65
50672;BME280;46021;55.882;37.654;2023-04-25T11:37:43;99017.75;;;26.31;21.52
50672;BME280;46021;55.882;37.654;2023-04-25T11:40:12;99011.56;;;24.94;23.03
50672;BME280;46021;55.882;37.654;2023-04-25T11:42:47;99012.13;;;25.06;23.38
50672;BME280;46021;55.882;37.654;2023-04-25T11:45:14;99008.75;;;24.69;23.26
50672;BME280;46021;55.882;37.654;2023-04-25T11:47:42;98999.78;;;24.52;23.72
50672;BME280;46021;55.882;37.654;2023-04-25T11:50:11;98997.16;;;24.79;23.88
50672;BME280;46021;55.882;37.654;2023-04-25T11:52:40;98987.53;;;25.20;23.42
50672;BME280;46021;55.882;37.654;2023-04-25T11:55:09;98998.03;;;24.87;23.02
50672;BME280;46021;55.882;37.654;2023-04-25T11:57:38;98997.34;;;24.41;23.68
50672;BME280;46021;55.882;37.654;2023-04-25T12:00:09;98989.53;;;23.58;24.08
50672;BME280;46021;55.882;37.654;2023-04-25T12:02:41;98990.94;;;22.77;24.92
50672;BME280;46021;55.882;37.654;2023-04-25T12:05:11;98995.78;;;22.35;25.45
50672;BME280;46021;55.882;37.654;2023-04-25T12:07:38;98987.50;;;22.18;25.33
50672;BME280;46021;55.882;37.654;2023-04-25T12:10:09;98988.22;;;22.01;26.00
50672;BME280;46021;55.882;37.654;2023-04-25T12:12:38;98983.34;;;22.26;25.59
50672;BME280;46021;55.882;37.654;2023-04-25T12:15:09;98983.19;;;22.47;25.45
50672;BME280;46021;55.882;37.654;2023-04-25T12:17:37;98970.09;;;22.26;25.16
50672;BME280;46021;55.882;37.654;2023-04-25T12:20:12;98974.19;;;21.50;26.64
50672;BME280;46021;55.882;37.654;2023-04-25T12:22:41;98974.72;;;21.13;27.06
50672;BME280;46021;55.882;37.654;2023-04-25T12:25:10;98966.16;;;21.40;26.73
50672;BME280;46021;55.882;37.654;2023-04-25T12:27:38;98968.91;;;21.79;26.72
50672;BME280;46021;55.882;37.654;2023-04-25T12:30:08;98953.31;;;22.35;26.35
50672;BME280;46021;55.882;37.654;2023-04-25T12:32:36;98957.97;;;22.80;26.05
50672;BME280;46021;55.882;37.654;2023-04-25T12:35:05;98947.94;;;23.02;25.78
50672;BME280;46021;55.882;37.654;2023-04-25T12:37:34;98928.47;;;23.11;25.55
50672;BME280;46021;55.882;37.654;2023-04-25T12:40:01;98934.56;;;23.21;25.41
50672;BME280;46021;55.882;37.654;2023-04-25T12:42:31;98931.56;;;22.96;25.63
50672;BME280;46021;55.882;37.654;2023-04-25T12:44:58;98921.31;;;22.36;25.97
50672;BME280;46021;55.882;37.654;2023-04-25T12:47:25;98924.22;;;22.24;26.21
50672;BME280;46021;55.882;37.654;2023-04-25T12:49:52;98926.31;;;21.71;26.44
50672;BME280;46021;55.882;37.654;2023-04-25T12:52:19;98925.53;;;21.30;26.79
50672;BME280;46021;55.882;37.654;2023-04-25T12:54:48;98917.97;;;21.16;26.70
50672;BME280;46021;55.882;37.654;2023-04-25T12:57:15;98910.66;;;20.68;28.08
50672;BME280;46021;55.882;37.654;2023-04-25T12:59:42;98912.41;;;20.57;28.23
50672;BME280;46021;55.882;37.654;2023-04-25T13:02:09;98911.78;;;20.44;28.21
50672;BME280;46021;55.882;37.654;2023-04-25T13:04:37;98902.78;;;20.35;27.91
50672;BME280;46021;55.882;37.654;2023-04-25T13:07:04;98918.53;;;20.58;28.43
50672;BME280;46021;55.882;37.654;2023-04-25T13:09:31;98902.00;;;20.66;28.63
50672;BME280;46021;55.882;37.654;2023-04-25T13:12:00;98899.72;;;20.82;28.16